createdAt,value
2019-05-19T00:02:03.182Z,15.70
2019-05-19T00:04:31.522Z,15.70
2019-05-19T00:06:59.798Z,15.70
2019-05-19T00:09:28.181Z,15.70
2019-05-19T00:11:56.429Z,15.60
2019-05-19T00:14:24.700Z,15.60
2019-05-19T00:16:53.001Z,15.60
2019-05-19T00:19:26.641Z,15.50
2019-05-19T00:21:51.871Z,15.60
2019-05-19T00:24:20.161Z,15.60
2019-05-19T00:26:48.605Z,15.50
2019-05-19T00:29:16.967Z,15.50
2019-05-19T00:31:45.238Z,15.50
2019-05-19T00:34:13.530Z,15.50
2019-05-19T00:36:41.788Z,15.50
2019-05-19T00:39:10.168Z,15.40
2019-05-19T00:41:38.536Z,15.40
2019-05-19T00:44:06.789Z,15.40
2019-05-19T00:46:35.095Z,15.40
2019-05-19T00:49:03.379Z,15.50
2019-05-19T00:51:31.622Z,15.40
2019-05-19T00:53:59.893Z,15.40
2019-05-19T00:56:28.155Z,15.40
2019-05-19T00:58:57.359Z,15.40
2019-05-19T01:01:25.668Z,15.40
2019-05-19T01:03:54.548Z,15.40
2019-05-19T01:06:22.909Z,15.30
2019-05-19T01:08:51.180Z,15.30
2019-05-19T01:11:19.428Z,15.30
2019-05-19T01:13:47.732Z,15.30
2019-05-19T01:16:15.989Z,15.30
2019-05-19T01:18:44.258Z,15.30
2019-05-19T01:21:12.847Z,15.30
2019-05-19T01:23:41.096Z,15.30
2019-05-19T01:26:09.360Z,15.30
2019-05-19T01:28:37.606Z,15.30
2019-05-19T01:31:05.960Z,15.30
2019-05-19T01:33:34.593Z,15.30
2019-05-19T01:36:02.863Z,15.30
2019-05-19T01:38:31.107Z,15.30
2019-05-19T01:40:59.379Z,15.30
2019-05-19T01:43:27.639Z,15.30
2019-05-19T01:45:55.908Z,15.30
2019-05-19T01:48:24.251Z,15.30
2019-05-19T01:50:52.509Z,15.20
2019-05-19T01:53:20.765Z,15.20
2019-05-19T01:55:49.035Z,15.20
2019-05-19T01:58:17.293Z,15.20
2019-05-19T02:00:46.111Z,15.20
2019-05-19T02:03:14.342Z,15.20
2019-05-19T02:05:43.572Z,15.20
2019-05-19T02:08:11.816Z,15.20
2019-05-19T02:10:40.248Z,15.10
2019-05-19T02:13:08.514Z,15.10
2019-05-19T02:15:36.868Z,15.10
2019-05-19T02:18:05.178Z,15.10
2019-05-19T02:20:34.001Z,15.00
2019-05-19T02:23:02.722Z,15.00
2019-05-19T02:25:31.678Z,15.00
2019-05-19T02:27:59.917Z,15.00
2019-05-19T02:30:30.685Z,15.00
2019-05-19T02:32:59.107Z,15.00
2019-05-19T02:35:28.174Z,14.90
2019-05-19T02:37:56.427Z,14.90
2019-05-19T02:40:24.709Z,14.90
2019-05-19T02:42:53.050Z,14.90
2019-05-19T02:45:21.532Z,14.80
2019-05-19T02:47:49.798Z,14.90
2019-05-19T02:50:19.505Z,14.90
2019-05-19T02:52:47.774Z,14.90
2019-05-19T02:55:16.301Z,14.90
2019-05-19T02:57:44.572Z,14.80
2019-05-19T03:00:13.086Z,14.80
2019-05-19T03:02:41.449Z,14.70
2019-05-19T03:05:09.875Z,14.70
2019-05-19T03:07:38.270Z,14.70
2019-05-19T03:10:06.609Z,14.70
2019-05-19T03:12:34.893Z,14.70
2019-05-19T03:15:03.430Z,14.70
2019-05-19T03:17:31.696Z,14.70
2019-05-19T03:20:00.139Z,14.60
2019-05-19T03:22:28.593Z,14.70
2019-05-19T03:24:56.899Z,14.70
2019-05-19T03:27:25.195Z,14.60
2019-05-19T03:29:55.100Z,14.70
2019-05-19T03:32:25.262Z,14.60
2019-05-19T03:34:53.548Z,14.60
2019-05-19T03:37:21.909Z,14.60
2019-05-19T03:39:50.181Z,14.60
2019-05-19T03:42:19.253Z,14.50
2019-05-19T03:44:47.508Z,14.50
2019-05-19T03:47:15.785Z,14.50
2019-05-19T03:49:44.186Z,14.40
2019-05-19T03:52:12.533Z,14.40
2019-05-19T03:54:40.808Z,14.40
2019-05-19T03:57:09.089Z,14.40
2019-05-19T03:59:37.377Z,14.40
2019-05-19T04:02:05.951Z,14.40
2019-05-19T04:04:34.365Z,14.50
2019-05-19T04:07:02.630Z,14.50
2019-05-19T04:09:30.889Z,14.40
2019-05-19T04:11:59.164Z,14.40
2019-05-19T04:14:27.513Z,14.40
2019-05-19T04:16:56.725Z,14.40
2019-05-19T04:19:25.125Z,14.30
2019-05-19T04:21:53.375Z,14.40
2019-05-19T04:24:21.639Z,14.40
2019-05-19T04:26:50.143Z,14.40
2019-05-19T04:29:18.400Z,14.40
2019-05-19T04:31:46.664Z,14.40
2019-05-19T04:34:14.895Z,14.40
2019-05-19T04:36:43.166Z,14.50
2019-05-19T04:39:11.438Z,14.40
2019-05-19T04:41:40.429Z,14.40
2019-05-19T04:44:08.806Z,14.40
2019-05-19T04:46:37.248Z,14.40
2019-05-19T04:49:05.500Z,14.40
2019-05-19T04:51:33.882Z,14.50
2019-05-19T04:54:02.135Z,14.50
2019-05-19T04:56:30.359Z,14.50
2019-05-19T04:58:58.660Z,14.50
2019-05-19T05:01:26.911Z,14.50
2019-05-19T05:03:55.295Z,14.50
2019-05-19T05:06:23.882Z,14.50
2019-05-19T05:08:52.097Z,14.60
2019-05-19T05:11:20.343Z,14.60
2019-05-19T05:13:48.741Z,14.60
2019-05-19T05:16:17.162Z,14.60
2019-05-19T05:18:47.877Z,14.50
2019-05-19T05:21:15.615Z,14.60
2019-05-19T05:23:43.915Z,14.60
2019-05-19T05:26:12.150Z,14.60
2019-05-19T05:28:40.462Z,14.70
2019-05-19T05:31:08.806Z,14.60
2019-05-19T05:33:37.095Z,14.70
2019-05-19T05:36:05.399Z,14.70
2019-05-19T05:38:33.688Z,14.70
2019-05-19T05:41:01.926Z,14.80
2019-05-19T05:43:30.284Z,14.80
2019-05-19T05:45:58.511Z,14.70
2019-05-19T05:48:26.867Z,14.70
2019-05-19T05:50:55.188Z,14.80
2019-05-19T05:53:23.486Z,14.80
2019-05-19T05:55:51.715Z,14.80
2019-05-19T05:58:19.942Z,14.80
2019-05-19T06:00:48.176Z,14.80
2019-05-19T06:03:16.390Z,14.80
2019-05-19T06:05:44.628Z,14.80
2019-05-19T06:08:12.835Z,14.80
2019-05-19T06:10:41.066Z,14.80
2019-05-19T06:13:09.307Z,14.80
2019-05-19T06:15:37.557Z,14.90
2019-05-19T06:18:05.949Z,14.90
2019-05-19T06:20:34.202Z,14.90
2019-05-19T06:23:02.504Z,15.00
2019-05-19T06:25:30.843Z,14.90
2019-05-19T06:27:59.099Z,15.00
2019-05-19T06:30:27.378Z,15.00
2019-05-19T06:32:57.349Z,15.00
2019-05-19T06:35:25.642Z,15.00
2019-05-19T06:37:53.933Z,15.00
2019-05-19T06:40:22.171Z,15.00
2019-05-19T06:42:50.625Z,15.00
2019-05-19T06:45:19.133Z,15.10
2019-05-19T06:47:47.543Z,15.10
2019-05-19T06:50:15.809Z,15.10
2019-05-19T06:52:44.055Z,15.10
2019-05-19T06:55:12.390Z,15.10
2019-05-19T06:57:40.818Z,15.10
2019-05-19T07:00:09.111Z,15.10
2019-05-19T07:02:37.548Z,15.10
2019-05-19T07:05:06.451Z,15.20
2019-05-19T07:07:34.749Z,15.20
2019-05-19T07:10:03.968Z,15.20
2019-05-19T07:12:32.244Z,15.10
2019-05-19T07:15:00.458Z,15.20
2019-05-19T07:17:28.728Z,15.20
2019-05-19T07:19:57.059Z,15.20
2019-05-19T07:22:25.390Z,15.20
2019-05-19T07:24:53.767Z,15.30
2019-05-19T07:27:22.037Z,15.30
2019-05-19T07:29:50.366Z,15.30
2019-05-19T07:32:18.711Z,15.40
2019-05-19T07:34:47.128Z,15.30
2019-05-19T07:37:15.529Z,15.40
2019-05-19T07:39:43.808Z,15.40
2019-05-19T07:42:12.084Z,15.40
2019-05-19T07:44:40.403Z,15.50
2019-05-19T07:47:08.766Z,15.50
2019-05-19T07:49:37.057Z,15.40
2019-05-19T07:52:05.322Z,15.40
2019-05-19T07:54:33.686Z,15.40
2019-05-19T07:57:03.043Z,15.40
2019-05-19T07:59:31.457Z,15.50
2019-05-19T08:01:59.771Z,15.60
2019-05-19T08:04:28.056Z,15.60
2019-05-19T08:06:56.505Z,15.60
2019-05-19T08:09:24.851Z,15.60
2019-05-19T08:11:53.092Z,15.70
2019-05-19T08:14:21.452Z,15.70
2019-05-19T08:16:49.748Z,15.70
2019-05-19T08:19:17.972Z,15.80
2019-05-19T08:21:46.239Z,15.80
2019-05-19T08:24:14.518Z,15.90
2019-05-19T08:26:42.837Z,15.90
2019-05-19T08:29:11.219Z,15.90
2019-05-19T08:31:39.662Z,15.90
2019-05-19T08:34:08.158Z,16.00
2019-05-19T08:36:36.525Z,16.00
2019-05-19T08:39:06.147Z,16.00
2019-05-19T08:41:35.143Z,16.00
2019-05-19T08:44:04.268Z,16.00
2019-05-19T08:46:32.547Z,16.10
2019-05-19T08:49:00.813Z,16.20
2019-05-19T08:51:29.104Z,16.20
2019-05-19T08:53:57.453Z,16.30
2019-05-19T08:56:25.770Z,16.30
2019-05-19T08:58:54.232Z,16.30
2019-05-19T09:01:22.792Z,16.30
2019-05-19T09:03:51.095Z,16.40
2019-05-19T09:06:21.159Z,16.40
2019-05-19T09:08:49.483Z,16.50
2019-05-19T09:11:17.749Z,16.50
2019-05-19T09:13:46.019Z,16.50
2019-05-19T09:16:14.242Z,16.50
2019-05-19T09:18:42.601Z,16.60
2019-05-19T09:21:10.882Z,16.60
2019-05-19T09:23:39.246Z,16.70
2019-05-19T09:26:07.533Z,16.70
2019-05-19T09:28:35.891Z,16.70
2019-05-19T09:31:04.238Z,16.80
2019-05-19T09:33:32.537Z,16.80
2019-05-19T09:36:00.841Z,16.90
2019-05-19T09:38:29.110Z,16.90
2019-05-19T09:40:57.452Z,16.90
2019-05-19T09:43:25.719Z,17.00
2019-05-19T09:45:54.860Z,17.00
2019-05-19T09:48:23.253Z,17.10
2019-05-19T09:50:51.485Z,17.30
2019-05-19T09:53:19.749Z,17.30
2019-05-19T09:55:48.005Z,17.40
2019-05-19T09:58:19.870Z,17.50
2019-05-19T10:00:46.425Z,17.50
2019-05-19T10:03:14.737Z,17.60
2019-05-19T10:05:42.954Z,17.70
2019-05-19T10:08:11.170Z,17.80
2019-05-19T10:10:54.886Z,17.90
2019-05-19T10:13:23.135Z,17.90
2019-05-19T10:15:51.357Z,18.00
2019-05-19T10:18:19.675Z,18.00
2019-05-19T10:20:50.403Z,18.10
2019-05-19T10:23:17.846Z,18.20
2019-05-19T10:25:46.178Z,18.20
2019-05-19T10:28:14.486Z,18.30
2019-05-19T10:30:42.744Z,18.40
2019-05-19T10:33:11.000Z,18.40
2019-05-19T10:35:39.209Z,18.50
2019-05-19T10:38:07.456Z,18.60
2019-05-19T10:40:35.936Z,18.70
2019-05-19T10:43:05.006Z,18.80
2019-05-19T10:45:33.232Z,18.90
2019-05-19T10:48:01.716Z,18.90
2019-05-19T10:50:30.069Z,18.90
2019-05-19T10:52:58.355Z,19.00
2019-05-19T10:55:36.223Z,19.00
2019-05-19T10:57:56.744Z,19.10
2019-05-19T11:00:25.135Z,19.10
2019-05-19T11:02:53.333Z,19.20
2019-05-19T11:05:22.081Z,19.20
2019-05-19T11:07:50.354Z,19.30
2019-05-19T11:10:18.589Z,19.30
2019-05-19T11:12:47.071Z,19.40
2019-05-19T11:15:15.502Z,19.50
2019-05-19T11:17:43.906Z,19.50
2019-05-19T11:20:12.154Z,19.60
2019-05-19T11:22:40.430Z,19.70
2019-05-19T11:25:08.640Z,19.70
2019-05-19T11:27:37.265Z,19.80
2019-05-19T11:30:06.462Z,19.80
2019-05-19T11:32:35.730Z,19.90
2019-05-19T11:35:05.935Z,19.90
2019-05-19T11:37:34.300Z,19.90
2019-05-19T11:40:03.126Z,20.00
2019-05-19T11:42:31.450Z,20.00
2019-05-19T11:45:25.447Z,20.10
2019-05-19T11:47:53.735Z,20.20
2019-05-19T11:50:21.952Z,20.20
2019-05-19T11:52:50.277Z,20.20
2019-05-19T11:55:18.509Z,20.30
2019-05-19T11:57:46.754Z,20.30
2019-05-19T12:00:15.120Z,20.40
2019-05-19T12:02:43.337Z,20.40
2019-05-19T12:05:11.557Z,20.50
2019-05-19T12:07:40.570Z,20.60
2019-05-19T12:10:09.385Z,20.70
2019-05-19T12:12:37.637Z,20.70
2019-05-19T12:15:07.286Z,20.70
2019-05-19T12:17:35.663Z,20.80
2019-05-19T12:20:04.269Z,20.90
2019-05-19T12:22:32.505Z,20.90
2019-05-19T12:25:00.807Z,21.00
2019-05-19T12:27:29.192Z,21.00
2019-05-19T12:29:57.409Z,21.00
2019-05-19T12:32:25.819Z,21.00
2019-05-19T12:34:54.215Z,21.10
2019-05-19T12:37:22.591Z,21.20
2019-05-19T12:39:50.980Z,21.20
2019-05-19T12:42:19.207Z,21.20
2019-05-19T12:44:47.557Z,21.30
2019-05-19T12:47:15.914Z,21.30
2019-05-19T12:49:44.302Z,21.40
2019-05-19T12:52:12.700Z,21.40
2019-05-19T12:54:40.936Z,21.40
2019-05-19T12:57:09.196Z,21.40
2019-05-19T12:59:37.444Z,21.50
2019-05-19T13:02:05.747Z,21.50
2019-05-19T13:04:34.949Z,21.50
2019-05-19T13:07:03.240Z,21.60
2019-05-19T13:09:31.619Z,21.60
2019-05-19T13:11:59.887Z,21.70
2019-05-19T13:14:28.264Z,21.60
2019-05-19T13:16:56.553Z,21.70
2019-05-19T13:19:24.801Z,21.60
2019-05-19T13:21:53.093Z,21.70
2019-05-19T13:24:21.419Z,21.80
2019-05-19T13:26:56.591Z,21.80
2019-05-19T13:29:19.668Z,21.80
2019-05-19T13:31:47.909Z,21.80
2019-05-19T13:34:16.298Z,21.80
2019-05-19T13:36:44.575Z,21.90
2019-05-19T13:39:12.796Z,21.80
2019-05-19T13:41:41.019Z,21.80
2019-05-19T13:44:09.254Z,21.80
2019-05-19T13:46:37.791Z,21.90
2019-05-19T13:49:06.085Z,21.90
2019-05-19T13:51:34.715Z,21.80
2019-05-19T13:54:03.275Z,21.90
2019-05-19T13:56:31.506Z,21.80
2019-05-19T13:58:59.817Z,21.90
2019-05-19T14:01:29.098Z,21.80
2019-05-19T14:03:57.446Z,21.90
2019-05-19T14:06:25.779Z,21.90
2019-05-19T14:08:54.002Z,21.90
2019-05-19T14:11:22.246Z,21.80
2019-05-19T14:13:50.468Z,21.80
2019-05-19T14:16:18.690Z,21.80
2019-05-19T14:18:46.925Z,21.80
2019-05-19T14:21:15.140Z,21.80
2019-05-19T14:23:43.379Z,21.80
2019-05-19T14:26:12.701Z,21.80
2019-05-19T14:28:40.925Z,21.80
2019-05-19T14:31:09.224Z,21.80
2019-05-19T14:33:37.439Z,21.80
2019-05-19T14:36:06.557Z,21.80
2019-05-19T14:38:34.771Z,21.80
2019-05-19T14:41:03.097Z,21.80
2019-05-19T14:43:33.024Z,21.80
2019-05-19T14:46:01.262Z,21.80
2019-05-19T14:48:29.490Z,21.80
2019-05-19T14:50:57.767Z,21.80
2019-05-19T14:53:26.153Z,21.70
2019-05-19T14:55:54.844Z,21.70
2019-05-19T14:58:23.472Z,21.70
2019-05-19T15:00:51.859Z,21.70
2019-05-19T15:03:20.076Z,21.70
2019-05-19T15:05:48.342Z,21.70
2019-05-19T15:08:16.874Z,21.70
2019-05-19T15:10:45.204Z,21.70
2019-05-19T15:13:13.613Z,21.70
2019-05-19T15:15:41.828Z,21.70
2019-05-19T15:18:10.065Z,21.70
2019-05-19T15:20:38.313Z,21.70
2019-05-19T15:23:06.563Z,21.70
2019-05-19T15:25:34.835Z,21.70
2019-05-19T15:28:05.399Z,21.70
2019-05-19T15:30:33.210Z,21.60
2019-05-19T15:33:01.451Z,21.70
2019-05-19T15:35:29.678Z,21.70
2019-05-19T15:37:58.289Z,21.70
2019-05-19T15:40:26.513Z,21.60
2019-05-19T15:42:54.730Z,21.60
2019-05-19T15:45:22.992Z,21.60
2019-05-19T15:47:51.291Z,21.50
2019-05-19T15:50:19.507Z,21.50
2019-05-19T15:52:47.739Z,21.50
2019-05-19T15:55:15.970Z,21.40
2019-05-19T15:57:44.194Z,21.40
2019-05-19T16:00:12.459Z,21.40
2019-05-19T16:02:40.842Z,21.40
2019-05-19T16:05:10.068Z,21.40
2019-05-19T16:07:38.303Z,21.40
2019-05-19T16:10:08.436Z,21.40
2019-05-19T16:12:36.885Z,21.40
2019-05-19T16:15:06.306Z,21.40
2019-05-19T16:17:34.530Z,21.40
2019-05-19T16:20:02.942Z,21.50
2019-05-19T16:22:31.208Z,21.50
2019-05-19T16:24:59.446Z,21.50
2019-05-19T16:27:27.746Z,21.50
2019-05-19T16:29:56.019Z,21.50
2019-05-19T16:32:24.334Z,21.50
2019-05-19T16:34:52.714Z,21.50
2019-05-19T16:37:20.998Z,21.50
2019-05-19T16:39:49.373Z,21.50
2019-05-19T16:42:17.643Z,21.50
2019-05-19T16:44:46.013Z,21.50
2019-05-19T16:47:14.359Z,21.40
2019-05-19T16:49:42.955Z,21.50
2019-05-19T16:52:11.205Z,21.50
2019-05-19T16:54:42.741Z,21.40
2019-05-19T16:57:11.409Z,21.40
2019-05-19T16:59:39.783Z,21.40
2019-05-19T17:02:08.146Z,21.40
2019-05-19T17:04:36.363Z,21.40
2019-05-19T17:07:05.351Z,21.40
2019-05-19T17:09:33.566Z,21.40
2019-05-19T17:12:01.803Z,21.40
2019-05-19T17:14:30.152Z,21.40
2019-05-19T17:16:58.383Z,21.40
2019-05-19T17:19:26.617Z,21.30
2019-05-19T17:21:54.866Z,21.30
2019-05-19T17:24:23.157Z,21.30
2019-05-19T17:26:51.390Z,21.30
2019-05-19T17:29:19.676Z,21.20
2019-05-19T17:31:47.937Z,21.20
2019-05-19T17:34:16.235Z,21.20
2019-05-19T17:36:45.848Z,21.20
2019-05-19T17:39:14.273Z,21.20
2019-05-19T17:41:42.586Z,21.20
2019-05-19T17:44:10.831Z,21.10
2019-05-19T17:46:39.574Z,21.10
2019-05-19T17:49:07.819Z,21.10
2019-05-19T17:51:36.045Z,21.00
2019-05-19T17:54:04.607Z,21.00
2019-05-19T17:56:32.924Z,20.90
2019-05-19T17:59:14.552Z,20.80
2019-05-19T18:01:31.438Z,20.80
2019-05-19T18:03:59.717Z,20.80
2019-05-19T18:06:29.922Z,20.70
2019-05-19T18:08:58.190Z,20.60
2019-05-19T18:11:26.526Z,20.50
2019-05-19T18:13:54.810Z,20.50
2019-05-19T18:16:23.180Z,20.40
2019-05-19T18:18:51.463Z,20.30
2019-05-19T18:21:19.723Z,20.30
2019-05-19T18:23:48.079Z,20.30
2019-05-19T18:26:16.360Z,20.20
2019-05-19T18:28:44.619Z,20.20
2019-05-19T18:31:12.888Z,20.10
2019-05-19T18:33:41.170Z,20.00
2019-05-19T18:36:09.507Z,20.00
2019-05-19T18:38:37.831Z,19.90
2019-05-19T18:41:06.142Z,19.80
2019-05-19T18:43:34.531Z,19.70
2019-05-19T18:46:02.799Z,19.80
2019-05-19T18:48:31.083Z,19.70
2019-05-19T18:50:59.524Z,19.70
2019-05-19T18:53:28.425Z,19.60
2019-05-19T18:55:56.845Z,19.40
2019-05-19T18:58:25.107Z,19.40
2019-05-19T19:00:53.405Z,19.30
2019-05-19T19:03:21.665Z,19.30
2019-05-19T19:05:49.911Z,19.20
2019-05-19T19:08:18.143Z,19.10
2019-05-19T19:10:46.748Z,19.00
2019-05-19T19:13:14.971Z,19.00
2019-05-19T19:15:43.498Z,19.00
2019-05-19T19:18:11.838Z,18.80
2019-05-19T19:20:40.124Z,18.80
2019-05-19T19:23:08.429Z,18.80
2019-05-19T19:25:36.759Z,18.70
2019-05-19T19:28:05.007Z,18.70
2019-05-19T19:30:33.278Z,18.60
2019-05-19T19:33:01.509Z,18.60
2019-05-19T19:35:38.632Z,18.60
2019-05-19T19:37:59.935Z,18.50
2019-05-19T19:40:29.889Z,18.50
2019-05-19T19:43:01.687Z,18.40
2019-05-19T19:45:30.120Z,18.40
2019-05-19T19:47:58.343Z,18.30
2019-05-19T19:50:26.589Z,18.30
2019-05-19T19:52:54.880Z,18.20
2019-05-19T19:55:23.222Z,18.10
2019-05-19T19:57:51.559Z,18.10
2019-05-19T20:00:37.244Z,18.10
2019-05-19T20:03:06.552Z,18.00
2019-05-19T20:05:34.942Z,18.00
2019-05-19T20:08:03.200Z,18.00
2019-05-19T20:10:31.837Z,17.90
2019-05-19T20:13:00.054Z,17.90
2019-05-19T20:15:28.374Z,17.90
2019-05-19T20:17:56.660Z,17.80
2019-05-19T20:20:24.988Z,17.80
2019-05-19T20:22:53.267Z,17.80
2019-05-19T20:25:21.494Z,17.80
2019-05-19T20:27:49.731Z,17.80
2019-05-19T20:30:33.814Z,17.70
2019-05-19T20:32:48.188Z,17.70
2019-05-19T20:35:16.498Z,17.70
2019-05-19T20:37:45.048Z,17.60
2019-05-19T20:40:13.986Z,17.60
2019-05-19T20:42:42.247Z,17.70
2019-05-19T20:45:10.851Z,17.60
2019-05-19T20:47:39.156Z,17.50
2019-05-19T20:50:08.067Z,17.50
2019-05-19T20:52:36.338Z,17.50
2019-05-19T20:55:06.020Z,17.40
2019-05-19T20:57:34.355Z,17.40
2019-05-19T21:00:02.595Z,17.40
2019-05-19T21:02:30.915Z,17.30
2019-05-19T21:04:59.224Z,17.30
2019-05-19T21:07:27.496Z,17.20
2019-05-19T21:09:56.803Z,17.20
2019-05-19T21:12:25.090Z,17.20
2019-05-19T21:14:53.308Z,17.10
2019-05-19T21:17:21.538Z,17.10
2019-05-19T21:19:49.756Z,17.10
2019-05-19T21:22:18.402Z,17.10
2019-05-19T21:24:46.615Z,17.10
2019-05-19T21:27:15.064Z,17.10
2019-05-19T21:29:43.323Z,17.00
2019-05-19T21:32:11.547Z,17.00
2019-05-19T21:34:39.784Z,17.00
2019-05-19T21:37:08.446Z,17.00
2019-05-19T21:39:36.728Z,17.00
2019-05-19T21:42:04.955Z,16.90
2019-05-19T21:44:33.187Z,16.90
2019-05-19T21:47:01.489Z,16.80
2019-05-19T21:49:29.697Z,16.80
2019-05-19T21:51:57.954Z,16.80
2019-05-19T21:54:26.959Z,16.70
2019-05-19T21:56:55.200Z,16.80
2019-05-19T21:59:23.676Z,16.70
2019-05-19T22:01:51.927Z,16.80
2019-05-19T22:04:20.231Z,16.70
2019-05-19T22:06:52.952Z,16.60
2019-05-19T22:09:21.407Z,16.60
2019-05-19T22:11:49.895Z,16.60
2019-05-19T22:14:18.146Z,16.60
2019-05-19T22:16:46.386Z,16.60
2019-05-19T22:19:15.956Z,16.60
2019-05-19T22:21:44.918Z,16.50
2019-05-19T22:24:13.191Z,16.60
2019-05-19T22:26:41.435Z,16.50
2019-05-19T22:29:09.663Z,16.50
2019-05-19T22:31:37.947Z,16.40
2019-05-19T22:34:06.159Z,16.50
2019-05-19T22:36:34.391Z,16.50
2019-05-19T22:39:02.611Z,16.40
2019-05-19T22:41:30.931Z,16.30
2019-05-19T22:43:59.209Z,16.40
2019-05-19T22:46:28.023Z,16.30
2019-05-19T22:48:56.240Z,16.30
2019-05-19T22:51:24.538Z,16.20
2019-05-19T22:53:53.670Z,16.20
2019-05-19T22:56:21.913Z,16.20
2019-05-19T22:58:50.115Z,16.10
2019-05-19T23:01:18.432Z,16.10
2019-05-19T23:03:46.658Z,16.10
2019-05-19T23:06:14.898Z,16.00
2019-05-19T23:08:43.147Z,16.10
2019-05-19T23:11:11.356Z,16.00
2019-05-19T23:13:39.582Z,15.90
2019-05-19T23:16:07.802Z,15.90
2019-05-19T23:18:36.070Z,16.00
2019-05-19T23:21:04.340Z,15.90
2019-05-19T23:23:32.572Z,15.90
2019-05-19T23:26:00.833Z,15.90
2019-05-19T23:28:29.056Z,15.90
2019-05-19T23:30:57.347Z,15.90
2019-05-19T23:33:25.585Z,15.90
2019-05-19T23:35:53.807Z,15.80
2019-05-19T23:38:22.039Z,15.80
2019-05-19T23:40:50.349Z,15.80
2019-05-19T23:43:18.590Z,15.90
2019-05-19T23:45:46.854Z,15.80
2019-05-19T23:48:15.113Z,15.80
2019-05-19T23:50:43.503Z,15.80
2019-05-19T23:53:11.886Z,15.90
2019-05-19T23:55:40.115Z,15.80
2019-05-19T23:58:08.461Z,15.80
